Aviation Digital Data Service (ADDS)

Output produced by METARs form (0046 UTC 30 March 2017)
found at http://www.aviationweather.gov/adds/metars/
 
KSAV 292353Z 15007KT 10SM FEW200 BKN250 24/12 A3000 RMK AO2 SLP157 T02390122 10294 20239 53006